Flight Track Log - Related Links

Times and Time Zones

All times are in EDT time to prevent confusion due to time zone crossing. See the JZA8145 flight status page for this flight to view local times or setup timezone preferences in your user account.

Time Position Orientation Groundspeed Altitude Reporting Facility
EDT Latitude Longitude Course Direction KTS MPH feet Rate Location/Type
Sat 02:58:01 PM 53.2667 -113.5833 184° South 120 138 3,400  Level Edmonton Center
Sat 02:59:01 PM 53.2333 -113.5333 138° Southeast 140 161 4,800 1,300 Climbing Edmonton Center
Sat 03:00:01 PM 53.1833 -113.5667 202° Southwest 180 207 6,000 1,350 Climbing Edmonton Center
Sat 03:01:00 PM 53.0911 -113.8289 163° South  Level FlightAware Approximate
Sat 03:01:01 PM 53.1333 -113.5500 169° South 180 207 7,500  Level Edmonton Center
Sat 03:02:00 PM 53.0158 -113.7997 169° South  Level FlightAware Approximate
Sat 03:02:01 PM 53.0833 -113.5667 191° South 180 207 8,800  Level Edmonton Center
Sat 03:03:00 PM 52.9515 -113.8074 184° South  Level Estimated
Sat 03:03:01 PM 53.0333 -113.5500 169° South 190 219 10,200  Level Edmonton Center
Sat 03:04:01 PM 52.9667 -113.5667 189° South 190 219 11,300 1,100 Climbing Edmonton Center
Sat 03:05:01 PM 52.9167 -113.5667 180° South 200 230 12,400 1,100 Climbing Edmonton Center
Sat 03:06:01 PM 52.8500 -113.5833 189° South 200 230 13,500 1,150 Climbing Edmonton Center
Sat 03:07:01 PM 52.8000 -113.5667 169° South 200 230 14,700 750 Climbing Edmonton Center
Sat 03:08:01 PM 52.7333 -113.5833 189° South 220 253 15,000 150 Climbing Edmonton Center
Sat 03:09:01 PM 52.6667 -113.5667 171° South 250 288 15,000  Level Edmonton Center
Sat 03:10:01 PM 52.6000 -113.5833 189° South 260 299 15,000  Level Edmonton Center
Sat 03:11:01 PM 52.5333 -113.6000 189° South 270 311 15,000  Level Edmonton Center
Sat 03:12:01 PM 52.4500 -113.5833 173° South 270 311 15,000  Level Edmonton Center
Sat 03:13:01 PM 52.3833 -113.5833 180° South 270 311 15,000  Level Edmonton Center
Sat 03:14:01 PM 52.3000 -113.5667 173° South 270 311 15,000  Level Edmonton Center
Sat 03:15:01 PM 52.2333 -113.5833 189° South 260 299 15,000  Level Edmonton Center
Sat 03:16:01 PM 52.1500 -113.6000 187° South 270 311 15,000  Level Edmonton Center
Sat 03:17:01 PM 52.0667 -113.6167 187° South 270 311 15,000  Level Edmonton Center
Sat 03:18:01 PM 52.0000 -113.6000 171° South 270 311 15,000  Level Edmonton Center
Sat 03:19:01 PM 51.9167 -113.6000 180° South 270 311 15,000 -50 Level Edmonton Center
Sat 03:20:01 PM 51.8500 -113.6167 189° South 270 311 14,900 -150 Descending Edmonton Center
Sat 03:21:01 PM 51.7667 -113.6333 187° South 270 311 14,700 -200 Descending Edmonton Center
Sat 03:22:01 PM 51.7000 -113.6667 197° South 270 311 14,500 -200 Descending Edmonton Center
Sat 03:23:01 PM 51.6167 -113.6833 187° South 280 322 14,300 -200 Descending Edmonton Center
Sat 03:24:01 PM 51.5333 -113.7167 194° South 280 322 14,100 -550 Descending Edmonton Center
Sat 03:25:01 PM 51.5000 -113.8167 242° Southwest 280 322 13,200 -950 Descending Edmonton Center
Sat 03:26:01 PM 51.4333 -113.9167 223° Southwest 280 322 12,200 -1,000 Descending Edmonton Center
Sat 03:27:01 PM 51.3833 -113.9833 220° Southwest 280 322 11,200 -1,000 Descending Edmonton Center
Sat 03:28:01 PM 51.3500 -114.1167 248° West 270 311 10,200 -1,100 Descending Edmonton Center
Sat 03:29:01 PM 51.3333 -114.2000 252° West 260 299 9,000 -900 Descending Edmonton Center
Sat 03:30:01 PM 51.2667 -114.2667 212° Southwest 210 242 8,400 -550 Descending Edmonton Center
Sat 03:31:01 PM 51.2167 -114.3000 203° Southwest 200 230 7,900 -850 Descending Edmonton Center
Sat 03:32:01 PM 51.1667 -114.2667 157° South 200 230 6,700 -1,050 Descending Edmonton Center
Sat 03:33:01 PM 51.1333 -114.2000 129° Southeast 190 219 5,800 -900 Descending Edmonton Center

Login

Don't have an account? Register now (free) for customized features, flight alerts, and more!